This is the latest recevied weather packets stored in our database for station/object KF4WSW-13. If no packets are shown the sender has not sent any weather packets the latest 1 day(s).
| Time | Temp. | Humidity | Pressure | Rain* | Wind** | Luminosity | Snow |
|---|---|---|---|---|---|---|---|
| 1778081586 | 28.33° C | 68% | 1015.3 hPa | 0 mm | - | 645 W/m² | - |
| 1778081283 | 28.89° C | 68% | 1015.3 hPa | 0 mm | - | 441 W/m² | - |
| 1778080980 | 28.89° C | 68% | 1015.5 hPa | 0 mm | - | 662 W/m² | - |
| 1778080375 | 27.78° C | 73% | 1015.2 hPa | 0 mm | - | 496 W/m² | - |
| 1778079769 | 28.33° C | 71% | 1015.2 hPa | 0 mm | - | 515 W/m² | - |
| 1778079162 | 27.78° C | 75% | 1015.2 hPa | 0 mm | - | 535 W/m² | - |
| 1778078254 | 27.22° C | 76% | 1015 hPa | 0 mm | - | 466 W/m² | - |
| 1778077650 | 27.22° C | 76% | 1015.2 hPa | 0 mm | - | 403 W/m² | - |
| 1778076441 | 26.67° C | 78% | 1015.2 hPa | 0 mm | - | 402 W/m² | - |
| 1778074621 | 26.11° C | 78% | 1015.1 hPa | 0 mm | - | 164 W/m² | - |
| 1778074318 | 26.11° C | 80% | 1015.1 hPa | 0 mm | - | 386 W/m² | - |
| 1778074015 | 25.56° C | 81% | 1015.1 hPa | 0 mm | - | 353 W/m² | - |
| 1778072198 | 24.44° C | 84% | 1014.9 hPa | 0 mm | - | 255 W/m² | - |
| 1778071895 | 24.44° C | 84% | 1015.1 hPa | 0 mm | - | 225 W/m² | - |
| 1778071593 | 24.44° C | 85% | 1014.9 hPa | 0 mm | - | 160 W/m² | - |
| 1778070988 | 23.89° C | 85% | 1015 hPa | 0 mm | - | 196 W/m² | - |
| 1778068568 | 22.78° C | 86% | 1014.5 hPa | 0 mm | - | 57 W/m² | - |
| 1778065844 | 21.67° C | 89% | 1014.1 hPa | 0 mm | - | 21 W/m² | - |
| 1778065542 | 21.67° C | 88% | 1013.8 hPa | 0 mm | - | 15 W/m² | - |
| 1778065239 | 21.67° C | 88% | 1013.9 hPa | 0 mm | - | 11 W/m² | - |
| 1778064935 | 21.67° C | 88% | 1013.7 hPa | 0 mm | - | 6 W/m² | - |
| 1778064028 | 21.67° C | 88% | 1013.5 hPa | 0 mm | - | 1 W/m² | - |
| 1778063725 | 21.67° C | 88% | 1013.6 hPa | 0 mm | - | 0 W/m² | - |
| 1778062817 | 21.67° C | 87% | 1013.4 hPa | 0 mm | - | 0 W/m² | - |
| 1778062211 | 21.67° C | 86% | 1013.5 hPa | 0 mm | - | 0 W/m² | - |
* Rain latest hour (hover to see other rain measurements)
** Current wind speed in m/s (hover to see current wind gust speed)